createdAt,value
2022-10-28T00:01:28.418Z,12.36
2022-10-28T00:03:58.468Z,12.35
2022-10-28T00:06:28.903Z,12.33
2022-10-28T00:08:57.339Z,12.33
2022-10-28T00:11:30.572Z,12.34
2022-10-28T00:14:00.375Z,12.34
2022-10-28T00:16:32.818Z,12.36
2022-10-28T00:19:01.780Z,12.37
2022-10-28T00:21:31.682Z,12.39
2022-10-28T00:23:59.947Z,12.41
2022-10-28T00:26:32.554Z,12.40
2022-10-28T00:29:03.987Z,12.39
2022-10-28T00:31:32.649Z,12.41
2022-10-28T00:34:02.222Z,12.43
2022-10-28T00:36:35.515Z,12.44
2022-10-28T00:39:39.058Z,12.44
2022-10-28T00:42:39.590Z,12.45
2022-10-28T00:45:12.477Z,12.40
2022-10-28T00:47:56.274Z,12.36
2022-10-28T00:50:58.424Z,12.34
2022-10-28T00:53:30.270Z,12.34
2022-10-28T00:56:00.606Z,12.34
2022-10-28T00:58:29.170Z,12.35
2022-10-28T01:00:57.273Z,12.37
2022-10-28T01:03:25.550Z,12.36
2022-10-28T01:05:55.667Z,12.35
2022-10-28T01:08:24.274Z,12.33
2022-10-28T01:11:29.912Z,12.32
2022-10-28T01:14:06.354Z,12.33
2022-10-28T01:16:58.706Z,12.35
2022-10-28T01:19:46.438Z,12.33
2022-10-28T01:22:39.165Z,12.27
2022-10-28T01:25:21.960Z,12.25
2022-10-28T01:28:03.276Z,12.24
2022-10-28T01:30:56.462Z,12.25
2022-10-28T01:33:32.584Z,12.28
2022-10-28T01:36:13.793Z,12.29
2022-10-28T01:38:50.178Z,12.32
2022-10-28T01:41:21.717Z,12.30
2022-10-28T01:43:59.617Z,12.28
2022-10-28T01:46:51.206Z,12.29
2022-10-28T01:49:25.128Z,12.28
2022-10-28T01:51:59.106Z,12.28
2022-10-28T01:54:29.695Z,12.29
2022-10-28T01:56:58.165Z,12.29
2022-10-28T01:59:28.455Z,12.27
2022-10-28T02:01:57.050Z,12.22
2022-10-28T02:04:25.036Z,12.23
2022-10-28T02:06:54.940Z,12.23
2022-10-28T02:09:40.561Z,12.24
2022-10-28T02:12:25.968Z,12.26
2022-10-28T02:15:23.955Z,12.25
2022-10-28T02:18:02.983Z,12.23
2022-10-28T02:20:55.627Z,12.19
2022-10-28T02:23:49.586Z,12.15
2022-10-28T02:26:20.057Z,12.15
2022-10-28T02:28:57.398Z,12.12
2022-10-28T02:31:32.441Z,12.11
2022-10-28T02:34:13.608Z,12.10
2022-10-28T02:36:46.256Z,12.11
2022-10-28T02:39:17.194Z,12.12
2022-10-28T02:42:27.142Z,12.12
2022-10-28T02:45:16.226Z,12.13
2022-10-28T02:47:51.505Z,12.14
2022-10-28T02:50:26.882Z,12.12
2022-10-28T02:52:58.378Z,12.12
2022-10-28T02:55:34.040Z,12.12
2022-10-28T02:58:02.110Z,12.11
2022-10-28T03:00:32.855Z,12.07
2022-10-28T03:03:01.892Z,12.05
2022-10-28T03:05:30.015Z,12.08
2022-10-28T03:08:00.710Z,12.10
2022-10-28T03:10:28.922Z,12.13
2022-10-28T03:13:00.245Z,12.16
2022-10-28T03:15:28.665Z,12.19
2022-10-28T03:17:56.775Z,12.19
2022-10-28T03:20:25.965Z,12.21
2022-10-28T03:38:36.688Z,12.13
2022-10-28T03:41:07.730Z,12.10
2022-10-28T03:43:35.923Z,12.08
2022-10-28T03:46:05.053Z,12.09
2022-10-28T03:48:33.623Z,12.12
2022-10-28T03:51:01.661Z,12.14
2022-10-28T03:53:31.498Z,12.16
2022-10-28T03:56:03.576Z,12.16
2022-10-28T03:58:35.128Z,12.14
2022-10-28T04:01:07.144Z,12.13
2022-10-28T04:03:37.429Z,12.12
2022-10-28T04:06:06.269Z,12.12
2022-10-28T04:08:37.965Z,12.11
2022-10-28T04:11:06.387Z,12.09
2022-10-28T04:13:35.487Z,12.05
2022-10-28T04:16:05.398Z,12.02
2022-10-28T04:18:42.183Z,12.03
2022-10-28T04:21:14.587Z,12.01
2022-10-28T04:23:43.036Z,12.04
2022-10-28T04:26:15.602Z,12.07
2022-10-28T04:28:43.783Z,12.10
2022-10-28T04:31:14.885Z,12.12
2022-10-28T04:33:45.705Z,12.11
2022-10-28T04:36:13.754Z,12.09
2022-10-28T04:38:41.775Z,12.04
2022-10-28T04:41:13.026Z,12.01
2022-10-28T04:43:41.163Z,12.00
2022-10-28T04:46:09.263Z,12.02
2022-10-28T04:48:37.447Z,12.04
2022-10-28T04:51:05.948Z,12.07
2022-10-28T04:53:36.351Z,12.06
2022-10-28T04:56:07.742Z,12.04
2022-10-28T04:58:38.226Z,12.05
2022-10-28T05:01:10.231Z,12.02
2022-10-28T05:03:49.755Z,12.00
2022-10-28T05:06:20.404Z,11.97
2022-10-28T05:08:48.456Z,11.96
2022-10-28T05:11:18.677Z,11.94
2022-10-28T05:13:48.816Z,11.94
2022-10-28T05:16:21.665Z,11.92
2022-10-28T05:18:49.976Z,11.93
2022-10-28T05:21:25.505Z,11.95
2022-10-28T05:23:58.269Z,11.98
2022-10-28T05:26:29.238Z,12.01
2022-10-28T05:29:20.035Z,12.03
2022-10-28T05:31:48.104Z,12.08
2022-10-28T05:34:17.068Z,12.10
2022-10-28T05:36:44.848Z,12.12
2022-10-28T05:39:13.829Z,12.14
2022-10-28T05:41:43.883Z,12.18
2022-10-28T05:44:14.311Z,12.21
2022-10-28T05:46:42.213Z,12.23
2022-10-28T05:49:10.034Z,12.24
2022-10-28T05:51:40.243Z,12.27
2022-10-28T05:54:08.130Z,12.28
2022-10-28T05:56:40.728Z,12.29
2022-10-28T05:59:12.757Z,12.35
2022-10-28T06:04:25.603Z,12.50
2022-10-28T06:06:55.930Z,12.58
2022-10-28T06:09:24.047Z,12.67
2022-10-28T06:11:52.950Z,12.73
2022-10-28T06:14:24.779Z,12.73
2022-10-28T06:16:59.510Z,12.73
2022-10-28T06:19:28.962Z,12.78
2022-10-28T06:21:59.910Z,12.85
2022-10-28T06:24:32.930Z,12.92
2022-10-28T06:27:00.947Z,12.99
2022-10-28T06:29:33.025Z,13.03
2022-10-28T06:32:00.889Z,13.07
2022-10-28T06:34:29.676Z,13.11
2022-10-28T06:37:00.564Z,13.16
2022-10-28T06:39:28.673Z,13.20
2022-10-28T06:41:56.595Z,13.26
2022-10-28T06:44:27.116Z,13.31
2022-10-28T06:46:57.419Z,13.33
2022-10-28T06:49:25.234Z,13.40
2022-10-28T06:51:59.071Z,13.45
2022-10-28T06:54:35.608Z,13.50
2022-10-28T06:57:06.242Z,13.53
2022-10-28T06:59:36.482Z,13.60
2022-10-28T07:02:07.148Z,13.61
2022-10-28T07:04:35.218Z,13.63
2022-10-28T07:07:10.839Z,13.62
2022-10-28T07:09:39.692Z,13.69
2022-10-28T07:12:10.752Z,13.74
2022-10-28T07:14:45.716Z,13.78
2022-10-28T07:17:22.906Z,13.84
2022-10-28T07:19:52.326Z,13.93
2022-10-28T07:22:25.836Z,13.99
2022-10-28T07:24:54.348Z,14.10
2022-10-28T07:27:23.934Z,14.15
2022-10-28T07:29:54.346Z,14.23
2022-10-28T07:32:24.753Z,14.34
2022-10-28T07:34:53.935Z,14.45
2022-10-28T07:37:22.126Z,14.62
2022-10-28T07:39:50.119Z,14.76
2022-10-28T07:42:18.352Z,14.90
2022-10-28T07:44:52.592Z,15.02
2022-10-28T07:47:23.537Z,15.13
2022-10-28T07:49:52.091Z,15.22
2022-10-28T07:52:21.104Z,15.32
2022-10-28T07:54:50.865Z,15.40
2022-10-28T07:57:19.289Z,15.46
2022-10-28T07:59:47.388Z,15.60
2022-10-28T08:02:20.236Z,15.74
2022-10-28T08:04:48.401Z,15.85
2022-10-28T08:07:17.021Z,15.92
2022-10-28T08:09:51.031Z,16.03
2022-10-28T08:12:19.279Z,16.12
2022-10-28T08:14:47.264Z,16.20
2022-10-28T08:17:15.565Z,16.29
2022-10-28T08:19:45.805Z,16.46
2022-10-28T08:22:14.173Z,16.62
2022-10-28T08:24:44.361Z,16.79
2022-10-28T08:27:15.066Z,16.95
2022-10-28T08:29:45.899Z,17.11
2022-10-28T08:32:13.902Z,17.27
2022-10-28T08:34:46.125Z,17.39
2022-10-28T08:37:17.938Z,17.51
2022-10-28T08:39:49.249Z,17.64
2022-10-28T08:42:39.658Z,17.79
2022-10-28T08:45:22.518Z,17.92
2022-10-28T08:47:56.874Z,17.94
2022-10-28T08:50:32.022Z,17.98
2022-10-28T08:53:08.480Z,18.19
2022-10-28T08:55:39.092Z,18.37
2022-10-28T08:58:24.799Z,18.56
2022-10-28T09:00:54.933Z,18.78
2022-10-28T09:03:35.579Z,18.94
2022-10-28T09:06:08.127Z,19.07
2022-10-28T09:08:41.552Z,19.23
2022-10-28T09:11:56.396Z,19.34
2022-10-28T09:15:14.045Z,19.51
2022-10-28T09:18:06.325Z,19.76
2022-10-28T09:20:53.454Z,19.97
2022-10-28T09:23:30.258Z,20.19
2022-10-28T09:26:28.362Z,20.33
2022-10-28T09:29:01.148Z,20.55
2022-10-28T09:31:36.383Z,20.79
2022-10-28T09:34:25.671Z,21.06
2022-10-28T09:37:27.789Z,21.27
2022-10-28T09:39:57.728Z,21.47
2022-10-28T09:42:29.628Z,21.63
2022-10-28T09:45:13.216Z,21.85
2022-10-28T09:47:43.780Z,22.12
2022-10-28T09:50:18.669Z,22.33
2022-10-28T09:52:56.722Z,22.51
2022-10-28T09:55:24.869Z,22.77
2022-10-28T09:57:53.261Z,22.95
2022-10-28T10:00:21.615Z,23.13
2022-10-28T10:02:54.455Z,23.27
2022-10-28T10:05:22.317Z,23.45
2022-10-28T10:08:05.779Z,23.62
2022-10-28T10:10:49.750Z,23.81
2022-10-28T10:13:24.431Z,24.03
2022-10-28T10:16:00.144Z,24.22
2022-10-28T10:18:39.272Z,24.41
2022-10-28T10:21:07.379Z,24.57
2022-10-28T10:26:12.622Z,24.86
2022-10-28T10:28:44.523Z,24.92
2022-10-28T10:31:23.964Z,25.02
2022-10-28T10:33:56.734Z,25.19
2022-10-28T10:36:28.420Z,25.39
2022-10-28T10:38:58.377Z,25.58
2022-10-28T10:41:40.974Z,25.75
2022-10-28T10:44:21.124Z,25.86
2022-10-28T10:47:21.554Z,25.95
2022-10-28T10:49:52.080Z,26.16
2022-10-28T10:52:24.393Z,26.30
2022-10-28T10:55:03.521Z,26.40
2022-10-28T10:57:35.359Z,26.53
2022-10-28T11:00:04.081Z,26.52
2022-10-28T11:02:42.126Z,26.55
2022-10-28T11:05:22.953Z,26.66
2022-10-28T11:07:56.266Z,26.75
2022-10-28T11:10:36.080Z,26.86
2022-10-28T11:13:35.657Z,26.85
2022-10-28T11:16:18.540Z,26.75
2022-10-28T11:18:58.157Z,26.81
2022-10-28T11:25:47.980Z,27.00
2022-10-28T11:29:57.599Z,27.18
2022-10-28T11:33:35.216Z,27.34
2022-10-28T11:36:26.508Z,27.20
2022-10-28T11:39:34.520Z,27.07
2022-10-28T11:42:08.943Z,27.21
2022-10-28T11:45:11.806Z,27.10
2022-10-28T11:48:29.995Z,27.04
2022-10-28T11:51:38.428Z,26.88
2022-10-28T11:54:23.438Z,26.73
2022-10-28T11:57:00.952Z,26.73
2022-10-28T12:00:38.416Z,26.87
2022-10-28T12:04:24.411Z,27.04
2022-10-28T12:07:35.589Z,27.18
2022-10-28T12:10:46.732Z,27.34
2022-10-28T12:13:38.886Z,27.52
2022-10-28T12:25:44.935Z,27.94
2022-10-28T12:28:34.271Z,27.83
2022-10-28T12:31:02.984Z,27.83
2022-10-28T12:33:39.932Z,27.92
2022-10-28T12:36:07.634Z,27.99
2022-10-28T12:39:20.390Z,28.13
2022-10-28T12:42:03.214Z,28.23
2022-10-28T12:44:32.753Z,28.28
2022-10-28T12:47:09.056Z,28.25
2022-10-28T12:49:49.268Z,28.37
2022-10-28T12:52:27.916Z,28.45
2022-10-28T12:55:04.047Z,28.50
2022-10-28T12:57:34.307Z,28.73
2022-10-28T13:00:24.636Z,28.85
2022-10-28T13:03:02.566Z,28.96
2022-10-28T13:05:51.220Z,29.16
2022-10-28T13:08:24.996Z,29.22
2022-10-28T13:11:21.127Z,29.34
2022-10-28T13:13:55.870Z,29.45
2022-10-28T13:16:50.354Z,29.50
2022-10-28T13:19:27.840Z,29.62
2022-10-28T13:22:14.647Z,29.78
2022-10-28T13:24:52.347Z,29.96
2022-10-28T13:27:20.865Z,30.07
2022-10-28T13:29:55.379Z,30.01
2022-10-28T13:32:41.796Z,30.03
2022-10-28T13:35:16.361Z,30.10
2022-10-28T13:37:46.553Z,30.14
2022-10-28T13:40:31.184Z,30.24
2022-10-28T13:43:00.272Z,30.30
2022-10-28T13:45:48.737Z,30.06
2022-10-28T13:48:42.819Z,29.63
2022-10-28T13:51:10.576Z,29.70
2022-10-28T13:53:47.878Z,29.74
2022-10-28T13:56:28.048Z,29.84
2022-10-28T13:59:12.748Z,29.94
2022-10-28T14:02:32.561Z,30.23
2022-10-28T14:04:59.794Z,30.63
2022-10-28T14:07:30.882Z,30.91
2022-10-28T14:10:22.155Z,31.17
2022-10-28T14:15:48.556Z,31.42
2022-10-28T14:21:06.740Z,31.47
2022-10-28T14:23:36.428Z,31.54
2022-10-28T14:26:05.674Z,31.66
2022-10-28T14:28:33.415Z,31.79
2022-10-28T14:31:13.061Z,31.92
2022-10-28T14:33:46.790Z,31.96
2022-10-28T14:36:17.802Z,31.90
2022-10-28T14:39:04.426Z,31.75
2022-10-28T14:41:48.307Z,31.34
2022-10-28T14:44:34.746Z,30.76
2022-10-28T14:47:27.495Z,29.73
2022-10-28T14:49:59.540Z,28.72
2022-10-28T14:52:29.459Z,28.10
2022-10-28T14:55:02.340Z,27.66
2022-10-28T14:57:33.934Z,27.48
2022-10-28T15:00:05.238Z,27.35
2022-10-28T15:02:34.825Z,26.92
2022-10-28T15:05:14.055Z,26.43
2022-10-28T15:07:42.406Z,25.91
2022-10-28T15:10:38.329Z,25.44
2022-10-28T15:13:15.879Z,24.86
2022-10-28T15:15:53.290Z,24.35
2022-10-28T15:18:26.067Z,23.87
2022-10-28T15:21:11.623Z,23.50
2022-10-28T15:23:39.546Z,23.16
2022-10-28T15:26:15.782Z,22.91
2022-10-28T15:28:43.816Z,22.65
2022-10-28T15:31:11.561Z,22.41
2022-10-28T15:33:41.497Z,22.17
2022-10-28T15:36:18.228Z,21.98
2022-10-28T15:38:53.223Z,21.80
2022-10-28T15:41:30.239Z,21.61
2022-10-28T15:44:00.631Z,21.41
2022-10-28T15:46:29.476Z,21.28
2022-10-28T15:48:59.064Z,21.15
2022-10-28T15:51:27.481Z,21.02
2022-10-28T15:54:10.380Z,20.85
2022-10-28T15:56:58.200Z,20.65
2022-10-28T15:59:26.568Z,20.46
2022-10-28T16:02:02.103Z,20.31
2022-10-28T16:04:33.732Z,20.17
2022-10-28T16:07:08.461Z,20.05
2022-10-28T16:09:45.876Z,19.93
2022-10-28T16:12:16.825Z,19.80
2022-10-28T16:14:47.779Z,19.69
2022-10-28T16:17:23.159Z,19.59
2022-10-28T16:19:53.724Z,19.49
2022-10-28T16:22:23.910Z,19.40
2022-10-28T16:24:53.262Z,19.33
2022-10-28T16:27:23.553Z,19.24
2022-10-28T16:29:51.724Z,19.13
2022-10-28T16:32:33.991Z,19.03
2022-10-28T16:35:04.836Z,18.91
2022-10-28T16:37:34.340Z,18.78
2022-10-28T16:40:02.119Z,18.65
2022-10-28T16:42:35.255Z,18.51
2022-10-28T16:45:05.099Z,18.36
2022-10-28T16:47:32.876Z,18.26
2022-10-28T16:50:01.002Z,18.20
2022-10-28T16:52:30.124Z,18.12
2022-10-28T16:55:02.776Z,18.05
2022-10-28T16:57:33.530Z,17.99
2022-10-28T17:00:04.217Z,17.95
2022-10-28T17:02:36.465Z,17.89
2022-10-28T17:05:12.418Z,17.87
2022-10-28T17:08:04.397Z,17.80
2022-10-28T17:10:45.293Z,17.76
2022-10-28T17:13:32.056Z,17.69
2022-10-28T17:16:02.422Z,17.61
2022-10-28T17:18:30.471Z,17.56
2022-10-28T17:21:02.670Z,17.52
2022-10-28T17:23:32.962Z,17.48
2022-10-28T17:26:02.678Z,17.44
2022-10-28T17:28:30.935Z,17.41
2022-10-28T17:31:08.279Z,17.36
2022-10-28T17:33:48.337Z,17.30
2022-10-28T17:36:28.467Z,17.26
2022-10-28T17:39:00.933Z,17.22
2022-10-28T17:41:29.169Z,17.18
2022-10-28T17:43:59.679Z,17.13
2022-10-28T17:46:36.081Z,17.08
2022-10-28T17:49:11.161Z,17.03
2022-10-28T17:51:53.179Z,17.00
2022-10-28T17:54:51.062Z,16.97
2022-10-28T17:58:11.203Z,16.93
2022-10-28T18:04:19.948Z,16.84
2022-10-28T18:07:14.039Z,16.83
2022-10-28T18:09:42.238Z,16.74
2022-10-28T18:12:12.559Z,16.69
2022-10-28T18:14:40.647Z,16.62
2022-10-28T18:17:08.636Z,16.55
2022-10-28T18:19:36.744Z,16.48
2022-10-28T18:22:04.516Z,16.39
2022-10-28T18:24:32.374Z,16.32
2022-10-28T18:27:00.389Z,16.24
2022-10-28T18:29:28.481Z,16.17
2022-10-28T18:31:56.727Z,16.11
2022-10-28T18:34:25.172Z,16.05
2022-10-28T18:36:53.116Z,16.01
2022-10-28T18:39:20.880Z,15.97
2022-10-28T18:41:48.680Z,15.96
2022-10-28T18:44:20.047Z,15.91
2022-10-28T18:46:47.962Z,15.87
2022-10-28T18:49:15.728Z,15.84
2022-10-28T18:51:43.785Z,15.81
2022-10-28T18:54:11.590Z,15.78
2022-10-28T18:56:40.262Z,15.75
2022-10-28T18:59:08.815Z,15.70
2022-10-28T19:01:38.907Z,15.67
2022-10-28T19:04:06.755Z,15.64
2022-10-28T19:06:34.822Z,15.59
2022-10-28T19:09:04.854Z,15.57
2022-10-28T19:11:34.153Z,15.54
2022-10-28T19:15:24.172Z,15.52
2022-10-28T19:17:57.120Z,15.43
2022-10-28T19:20:29.016Z,15.41
2022-10-28T19:22:59.004Z,15.39
2022-10-28T19:28:39.345Z,15.36
2022-10-28T19:31:42.020Z,15.32
2022-10-28T19:34:18.244Z,15.29
2022-10-28T19:37:00.077Z,15.25
2022-10-28T19:39:35.102Z,15.24
2022-10-28T19:42:13.429Z,15.19
2022-10-28T19:44:53.046Z,15.15
2022-10-28T19:47:32.768Z,15.12
2022-10-28T19:50:17.206Z,15.09
2022-10-28T19:53:00.869Z,15.05
2022-10-28T19:55:46.429Z,15.04
2022-10-28T19:58:43.603Z,15.05
2022-10-28T20:01:28.844Z,15.05
2022-10-28T20:03:57.616Z,15.04
2022-10-28T20:06:30.877Z,15.02
2022-10-28T20:09:09.901Z,15.04
2022-10-28T20:11:39.336Z,15.04
2022-10-28T20:14:15.844Z,15.07
2022-10-28T20:16:49.358Z,15.10
2022-10-28T20:19:20.277Z,15.10
2022-10-28T20:21:54.699Z,15.11
2022-10-28T20:24:26.991Z,15.11
2022-10-28T20:26:55.559Z,15.11
2022-10-28T20:29:24.234Z,15.09
2022-10-28T20:31:53.888Z,15.07
2022-10-28T20:34:22.203Z,15.05
2022-10-28T20:36:52.166Z,15.03
2022-10-28T20:39:21.319Z,15.00
2022-10-28T20:41:53.433Z,14.96
2022-10-28T20:44:21.240Z,14.92
2022-10-28T20:46:51.526Z,14.88
2022-10-28T20:49:20.595Z,14.83
2022-10-28T20:51:49.668Z,14.77
2022-10-28T20:54:20.351Z,14.72
2022-10-28T20:56:48.181Z,14.69
2022-10-28T20:59:15.967Z,14.69
2022-10-28T21:01:49.884Z,14.72
2022-10-28T21:04:17.956Z,14.73
2022-10-28T21:06:46.049Z,14.73
2022-10-28T21:09:14.012Z,14.73
2022-10-28T21:11:44.706Z,14.71
2022-10-28T21:14:15.283Z,14.69
2022-10-28T21:16:45.628Z,14.67
2022-10-28T21:19:16.539Z,14.64
2022-10-28T21:21:45.585Z,14.60
2022-10-28T21:24:15.803Z,14.57
2022-10-28T21:26:46.068Z,14.54
2022-10-28T21:29:22.234Z,14.49
2022-10-28T21:31:50.353Z,14.46
2022-10-28T21:34:18.207Z,14.45
2022-10-28T21:36:46.091Z,14.47
2022-10-28T21:39:13.944Z,14.49
2022-10-28T21:41:44.581Z,14.51
2022-10-28T21:44:26.353Z,14.55
2022-10-28T21:46:57.723Z,14.56
2022-10-28T21:49:25.835Z,14.56
2022-10-28T21:51:53.705Z,14.56
2022-10-28T21:54:21.615Z,14.55
2022-10-28T21:56:54.970Z,14.54
2022-10-28T21:59:22.871Z,14.48
2022-10-28T22:02:11.271Z,14.51
2022-10-28T22:04:39.609Z,14.49
2022-10-28T22:07:07.581Z,14.46
2022-10-28T22:09:37.544Z,14.46
2022-10-28T22:12:13.343Z,14.49
2022-10-28T22:14:49.895Z,14.50
2022-10-28T22:17:21.231Z,14.51
2022-10-28T22:19:49.140Z,14.52
2022-10-28T22:22:16.893Z,14.52
2022-10-28T22:27:35.051Z,14.53
2022-10-28T22:30:09.326Z,14.53
2022-10-28T22:33:00.235Z,14.51
2022-10-28T22:35:27.086Z,14.51
2022-10-28T22:41:49.535Z,14.51
2022-10-28T22:44:26.762Z,14.50
2022-10-28T22:47:24.072Z,14.53
2022-10-28T22:49:57.915Z,14.57
2022-10-28T22:52:49.108Z,14.60
2022-10-28T22:55:50.937Z,14.61
2022-10-28T22:58:23.118Z,14.58
2022-10-28T23:00:51.183Z,14.53
2022-10-28T23:03:19.254Z,14.46
2022-10-28T23:05:47.051Z,14.44
2022-10-28T23:08:15.752Z,14.40
2022-10-28T23:10:51.614Z,14.34
2022-10-28T23:13:21.528Z,14.33
2022-10-28T23:15:49.389Z,14.32
2022-10-28T23:18:17.305Z,14.32
2022-10-28T23:20:45.116Z,14.31
2022-10-28T23:23:13.014Z,14.31
2022-10-28T23:25:40.856Z,14.29
2022-10-28T23:28:08.835Z,14.28
2022-10-28T23:30:36.878Z,14.28
2022-10-28T23:33:04.848Z,14.29
2022-10-28T23:35:34.695Z,14.28
2022-10-28T23:38:05.404Z,14.30
2022-10-28T23:40:33.350Z,14.29
2022-10-28T23:43:03.809Z,14.29
2022-10-28T23:45:31.751Z,14.31
2022-10-28T23:47:59.653Z,14.32
2022-10-28T23:50:27.634Z,14.34
2022-10-28T23:52:56.061Z,14.35
2022-10-28T23:55:25.715Z,14.33
2022-10-28T23:57:57.452Z,14.32
